Time;durP1;ratioP1;P1;durP2;ratioP2;P2;SDS_P1;SDS_P2;PMS_P1;PMS_P2;Temp;Humidity;BMP_temperature;BMP_pressure;BME280_temperature;BME280_humidity;BME280_pressure;Samples;Min_cycle;Max_cycle;Signal;HPM_P1;HPM_P2
2023/12/05 00:00:46;;;;;;;;;;;;;;;0.57;56.98;94004.59;4957745;28;20669;-66
2023/12/05 00:03:12;;;;;;;;;;;;;;;0.46;56.71;94003.06;4961669;28;19926;-66
2023/12/05 00:05:37;;;;;;;;;;;;;;;0.69;56.61;93992.03;4958589;28;19922;-66
2023/12/05 00:08:02;;;;;;;;;;;;;;;0.76;56.07;93989.63;4955768;28;19926;-65
2023/12/05 00:10:28;;;;;;;;;;;;;;;0.47;54.24;93998.63;4958435;28;20091;-66
2023/12/05 00:12:53;;;;;;;;;;;;;;;0.08;55.99;93999.88;4957692;28;20007;-66
2023/12/05 00:15:18;;;;;;;;;;;;;;;0.25;58.34;93989.50;4963839;28;19956;-65
2023/12/05 00:17:43;;;;;;;;;;;;;;;0.53;57.66;93987.56;4957946;28;20083;-66
2023/12/05 00:20:10;;;;;;;;;;;;;;;0.57;56.62;93985.44;4954161;28;19926;-65
2023/12/05 00:22:36;;;;;;;;;;;;;;;0.55;55.73;93985.59;4957540;28;20058;-65
2023/12/05 00:25:01;;;;;;;;;;;;;;;0.50;56.05;93980.00;4957495;28;19922;-66
2023/12/05 00:27:26;;;;;;;;;;;;;;;0.55;57.08;93985.59;4960381;28;19955;-66
2023/12/05 00:29:51;;;;;;;;;;;;;;;0.54;57.40;93983.94;4958215;28;20505;-66
2023/12/05 00:32:17;;;;;;;;;;;;;;;0.48;56.55;93979.31;4961160;28;19998;-66
2023/12/05 00:34:43;;;;;;;;;;;;;;;0.54;56.56;93983.94;4958029;28;19939;-66
2023/12/05 00:37:08;;;;;;;;;;;;;;;0.69;55.60;93978.94;4957256;28;19910;-66
2023/12/05 00:39:34;;;;;;;;;;;;;;;0.59;57.80;93986.13;4956984;28;20781;-65
2023/12/05 00:41:59;;;;;;;;;;;;;;;0.63;55.20;93982.19;4957139;28;19922;-66
2023/12/05 00:44:24;;;;;;;;;;;;;;;0.44;54.33;93988.47;4957178;28;19949;-66
2023/12/05 00:46:50;;;;;;;;;;;;;;;0.45;56.86;93992.75;4957176;28;19922;-65
2023/12/05 00:49:15;;;;;;;;;;;;;;;0.72;57.07;93981.25;4953923;28;19965;-65
2023/12/05 00:51:40;;;;;;;;;;;;;;;0.61;57.16;93980.72;4955822;28;19922;-65
2023/12/05 00:54:05;;;;;;;;;;;;;;;0.46;57.34;93997.00;4957525;28;20027;-65
2023/12/05 00:56:31;;;;;;;;;;;;;;;0.44;55.56;93986.69;4956761;28;19956;-65
2023/12/05 00:58:56;;;;;;;;;;;;;;;-0.85;58.30;93994.78;4956565;28;20062;-65
2023/12/05 01:01:21;;;;;;;;;;;;;;;0.11;58.41;93988.28;4957483;28;20688;-66
2023/12/05 01:03:46;;;;;;;;;;;;;;;0.29;56.72;93996.06;4956966;28;19926;-65
2023/12/05 01:06:12;;;;;;;;;;;;;;;0.50;56.70;93987.84;4957486;28;19984;-65
2023/12/05 01:08:37;;;;;;;;;;;;;;;0.45;56.38;93996.16;4953805;28;19976;-65
2023/12/05 01:11:02;;;;;;;;;;;;;;;0.43;57.36;93994.69;4956772;28;20461;-66
2023/12/05 01:13:27;;;;;;;;;;;;;;;0.71;57.15;93979.63;4956858;28;20024;-65
2023/12/05 01:15:53;;;;;;;;;;;;;;;0.83;56.87;93985.41;4956649;28;20015;-66
2023/12/05 01:18:18;;;;;;;;;;;;;;;0.79;56.52;93973.56;4951699;28;20568;-65
2023/12/05 01:20:44;;;;;;;;;;;;;;;0.81;55.89;93971.63;4953862;28;19957;-65
2023/12/05 01:23:09;;;;;;;;;;;;;;;0.68;55.39;93968.66;4956462;28;19929;-65
2023/12/05 01:25:34;;;;;;;;;;;;;;;0.73;56.69;93955.88;4957241;28;20056;-64
2023/12/05 01:27:59;;;;;;;;;;;;;;;0.65;57.02;93963.72;4956669;28;19957;-65
2023/12/05 01:30:24;;;;;;;;;;;;;;;0.73;57.30;93950.66;4957152;28;19988;-64
2023/12/05 01:32:50;;;;;;;;;;;;;;;0.55;55.92;93955.97;4956427;28;20021;-64
2023/12/05 01:35:16;;;;;;;;;;;;;;;0.57;57.07;93951.38;4956726;28;19922;-64
2023/12/05 01:37:42;;;;;;;;;;;;;;;0.72;56.68;93949.00;4957204;28;19961;-65
2023/12/05 01:40:09;;;;;;;;;;;;;;;0.66;56.66;93949.63;4956616;28;20503;-64
2023/12/05 01:42:35;;;;;;;;;;;;;;;0.63;56.03;93947.31;4956264;28;19940;-65
2023/12/05 01:45:00;;;;;;;;;;;;;;;0.73;56.11;93961.13;4956861;28;20324;-65
2023/12/05 01:47:25;;;;;;;;;;;;;;;0.75;57.80;93959.16;4955741;28;19922;-65
2023/12/05 01:49:51;;;;;;;;;;;;;;;0.76;56.47;93955.56;4953839;28;19934;-65
2023/12/05 01:52:16;;;;;;;;;;;;;;;0.71;56.82;93957.81;4954339;28;19932;-64
2023/12/05 01:54:43;;;;;;;;;;;;;;;0.65;56.49;93961.09;4955920;28;20512;-65
2023/12/05 01:57:08;;;;;;;;;;;;;;;0.42;55.73;93965.09;4956309;28;19926;-63
2023/12/05 01:59:33;;;;;;;;;;;;;;;0.54;57.82;93967.41;4971112;28;19961;-65
2023/12/05 02:01:58;;;;;;;;;;;;;;;0.76;57.07;93954.75;4956929;28;19983;-65
2023/12/05 02:04:24;;;;;;;;;;;;;;;0.69;56.59;93959.81;4956471;28;20343;-65
2023/12/05 02:06:49;;;;;;;;;;;;;;;0.79;55.22;93962.28;4986489;28;19922;-64
2023/12/05 02:09:14;;;;;;;;;;;;;;;0.40;57.15;93963.56;4956490;28;19918;-63
2023/12/05 02:11:43;;;;;;;;;;;;;;;0.77;56.71;93959.84;4990381;28;19926;-64
2023/12/05 02:14:08;;;;;;;;;;;;;;;0.75;57.06;93959.16;4960152;28;19922;-65
2023/12/05 02:16:42;;;;;;;;;;;;;;;0.70;56.79;93956.19;4958188;28;19989;-64
2023/12/05 02:19:30;;;;;;;;;;;;;;;0.77;56.35;93959.84;4969696;28;19971;-64
2023/12/05 02:21:56;;;;;;;;;;;;;;;0.71;56.30;93957.81;4954859;28;20545;-64
2023/12/05 02:24:30;;;;;;;;;;;;;;;0.13;55.67;93966.19;4959561;28;19975;-65
2023/12/05 02:27:01;;;;;;;;;;;;;;;0.66;57.13;93960.09;4973438;28;19922;-63
2023/12/05 02:29:26;;;;;;;;;;;;;;;0.86;56.78;93963.31;4960093;28;20812;-64
2023/12/05 02:31:52;;;;;;;;;;;;;;;0.88;56.63;93963.16;4959884;28;20032;-65
2023/12/05 02:34:18;;;;;;;;;;;;;;;0.33;57.39;93961.59;4960168;28;19992;-66
2023/12/05 02:36:59;;;;;;;;;;;;;;;0.57;57.45;93949.59;4990234;28;20059;-66
2023/12/05 02:39:40;;;;;;;;;;;;;;;0.51;58.65;93952.84;4959472;28;19969;-66
2023/12/05 02:42:06;;;;;;;;;;;;;;;0.40;56.04;93955.72;4959973;28;19922;-66
2023/12/05 02:44:34;;;;;;;;;;;;;;;0.47;56.43;93948.88;4957326;28;19953;-67
2023/12/05 02:46:59;;;;;;;;;;;;;;;0.58;58.29;93946.00;4957438;28;19926;-66
2023/12/05 02:49:24;;;;;;;;;;;;;;;0.60;56.66;93945.84;4957039;28;19926;-66
2023/12/05 02:51:49;;;;;;;;;;;;;;;0.88;56.69;93936.94;4958806;28;19962;-66
2023/12/05 02:54:15;;;;;;;;;;;;;;;-0.73;59.88;93958.00;4957374;28;20033;-65
2023/12/05 02:56:40;;;;;;;;;;;;;;;0.41;58.83;93954.75;4959417;28;19933;-66
2023/12/05 02:59:05;;;;;;;;;;;;;;;0.70;57.68;93945.72;4957161;28;19926;-66
2023/12/05 03:01:32;;;;;;;;;;;;;;;0.77;55.64;93948.50;4959567;28;19956;-65
2023/12/05 03:03:57;;;;;;;;;;;;;;;0.73;57.11;93945.41;4958816;28;19926;-65
2023/12/05 03:06:23;;;;;;;;;;;;;;;0.75;57.82;93948.69;4959234;28;19941;-66
2023/12/05 03:08:48;;;;;;;;;;;;;;;0.80;56.92;93954.28;4955594;28;20617;-66
2023/12/05 03:11:13;;;;;;;;;;;;;;;0.74;56.99;93957.53;4959145;28;19930;-66
2023/12/05 03:13:39;;;;;;;;;;;;;;;1.01;56.40;93953.03;4959176;28;19926;-65
2023/12/05 03:16:05;;;;;;;;;;;;;;;0.78;55.49;93958.84;4959395;28;20021;-65
2023/12/05 03:18:30;;;;;;;;;;;;;;;0.95;56.81;93948.41;4957122;28;20024;-67
2023/12/05 03:20:55;;;;;;;;;;;;;;;1.09;56.71;93950.44;4958108;28;19926;-65
2023/12/05 03:23:21;;;;;;;;;;;;;;;1.11;56.32;93958.97;4958638;28;19933;-65
2023/12/05 03:25:46;;;;;;;;;;;;;;;1.19;55.25;93939.81;4959553;28;19930;-66
2023/12/05 03:28:11;;;;;;;;;;;;;;;0.56;56.48;93953.19;4958647;28;20580;-66
2023/12/05 03:30:37;;;;;;;;;;;;;;;0.79;57.05;93951.81;4958362;28;20063;-66
2023/12/05 03:33:02;;;;;;;;;;;;;;;0.89;55.78;93944.63;4958504;28;19988;-65
2023/12/05 03:35:28;;;;;;;;;;;;;;;0.78;55.02;93950.19;4958328;28;19933;-66
2023/12/05 03:37:53;;;;;;;;;;;;;;;0.96;56.60;93948.25;4958656;28;19933;-65
2023/12/05 03:40:18;;;;;;;;;;;;;;;1.02;57.34;93953.88;4958769;28;19930;-66
2023/12/05 03:42:44;;;;;;;;;;;;;;;0.73;55.83;93948.81;4958431;28;19930;-63
2023/12/05 03:45:09;;;;;;;;;;;;;;;0.92;57.38;93957.41;4958927;28;20209;-63
2023/12/05 03:47:34;;;;;;;;;;;;;;;0.95;56.60;93943.16;4957505;28;20378;-63
2023/12/05 03:49:59;;;;;;;;;;;;;;;0.35;56.48;93953.59;4955610;28;20621;-63
2023/12/05 03:52:25;;;;;;;;;;;;;;;0.64;58.17;93948.94;4958087;28;19974;-64
2023/12/05 03:54:50;;;;;;;;;;;;;;;0.89;57.49;93954.31;4957936;28;19926;-63
2023/12/05 03:57:15;;;;;;;;;;;;;;;1.09;56.56;93944.38;4958628;28;19928;-62
2023/12/05 03:59:40;;;;;;;;;;;;;;;1.09;56.85;93939.94;4958366;28;20000;-63
2023/12/05 04:02:06;;;;;;;;;;;;;;;1.03;57.44;93945.84;4957609;28;19969;-65
2023/12/05 04:04:31;;;;;;;;;;;;;;;1.10;57.27;93952.06;4957898;28;19930;-64
2023/12/05 04:06:56;;;;;;;;;;;;;;;1.08;56.87;93953.22;4956217;28;19960;-65
2023/12/05 04:09:21;;;;;;;;;;;;;;;1.31;56.42;93955.22;4956793;28;20007;-64
2023/12/05 04:11:47;;;;;;;;;;;;;;;1.19;56.43;93949.50;4957976;28;19941;-66
2023/12/05 04:14:12;;;;;;;;;;;;;;;1.30;56.67;93956.22;4958340;28;19964;-64
2023/12/05 04:16:37;;;;;;;;;;;;;;;0.96;57.12;93963.97;4957738;28;19969;-64
2023/12/05 04:19:03;;;;;;;;;;;;;;;0.74;55.27;93960.13;4955368;28;19925;-65
2023/12/05 04:21:28;;;;;;;;;;;;;;;1.24;56.64;93955.88;4957982;28;20512;-65
2023/12/05 04:23:54;;;;;;;;;;;;;;;1.45;56.51;93959.03;4957703;28;20004;-64
2023/12/05 04:26:20;;;;;;;;;;;;;;;1.51;55.48;93968.88;4958073;28;19934;-64
2023/12/05 04:28:45;;;;;;;;;;;;;;;1.59;55.90;93960.22;4957611;28;20455;-65
2023/12/05 04:31:11;;;;;;;;;;;;;;;1.50;54.57;93970.66;4957418;28;19934;-64
2023/12/05 04:33:38;;;;;;;;;;;;;;;1.34;54.94;93963.63;4957733;28;19973;-64
2023/12/05 04:36:03;;;;;;;;;;;;;;;1.42;56.23;93973.28;4957540;28;20744;-64
2023/12/05 04:38:28;;;;;;;;;;;;;;;1.53;55.77;93966.09;4958039;28;20044;-64
2023/12/05 04:40:54;;;;;;;;;;;;;;;1.34;54.34;93971.47;4957219;28;19965;-65
2023/12/05 04:43:19;;;;;;;;;;;;;;;1.50;55.80;93973.28;4957754;28;19996;-65
2023/12/05 04:45:44;;;;;;;;;;;;;;;1.20;54.74;93979.97;4957163;28;20339;-64
2023/12/05 04:48:10;;;;;;;;;;;;;;;1.41;56.20;93971.66;4956453;28;20634;-64
2023/12/05 04:50:35;;;;;;;;;;;;;;;1.60;55.96;93973.16;4954432;28;19926;-65
2023/12/05 04:53:00;;;;;;;;;;;;;;;1.45;56.60;93972.13;4957069;28;20013;-65
2023/12/05 04:55:25;;;;;;;;;;;;;;;1.39;56.05;93965.72;4957010;28;19918;-65
2023/12/05 04:57:51;;;;;;;;;;;;;;;1.43;55.44;93967.03;4957752;28;20668;-66
2023/12/05 05:00:16;;;;;;;;;;;;;;;1.56;55.91;93971.03;4957079;28;20702;-66
2023/12/05 05:02:42;;;;;;;;;;;;;;;1.62;55.82;93979.09;4956370;28;19926;-66
2023/12/05 05:05:07;;;;;;;;;;;;;;;1.81;55.23;93984.97;4957600;28;19930;-66
2023/12/05 05:07:33;;;;;;;;;;;;;;;1.80;55.46;93983.34;4953284;28;20347;-66
2023/12/05 05:09:58;;;;;;;;;;;;;;;1.90;54.18;93987.63;4957058;28;19925;-65
2023/12/05 05:12:23;;;;;;;;;;;;;;;1.13;56.12;93986.81;4956917;28;19930;-66
2023/12/05 05:14:49;;;;;;;;;;;;;;;0.81;57.84;93989.16;4956718;28;19926;-66
2023/12/05 05:17:14;;;;;;;;;;;;;;;0.84;57.28;93984.44;4956716;28;20559;-66
2023/12/05 05:19:39;;;;;;;;;;;;;;;1.03;57.21;93979.09;4954464;28;19933;-65
2023/12/05 05:22:04;;;;;;;;;;;;;;;1.16;56.78;93989.13;4956950;28;19944;-65
2023/12/05 05:24:30;;;;;;;;;;;;;;;1.22;55.19;93986.69;4956579;28;20420;-66
2023/12/05 05:26:55;;;;;;;;;;;;;;;0.95;56.82;93985.09;4956703;28;19965;-66
2023/12/05 05:29:20;;;;;;;;;;;;;;;0.80;56.85;93990.97;4956892;28;20383;-65
2023/12/05 05:31:45;;;;;;;;;;;;;;;1.19;57.70;93981.75;4956628;28;19958;-65
2023/12/05 05:34:10;;;;;;;;;;;;;;;1.45;56.40;93985.25;4956653;28;19929;-66
2023/12/05 05:36:36;;;;;;;;;;;;;;;1.10;57.55;93982.72;4956448;28;19926;-65
2023/12/05 05:39:01;;;;;;;;;;;;;;;1.32;57.12;93994.41;4956093;28;20572;-65
2023/12/05 05:41:26;;;;;;;;;;;;;;;0.82;57.00;93991.59;4956596;28;20169;-65
2023/12/05 05:43:52;;;;;;;;;;;;;;;1.28;56.49;93987.84;4955982;28;19934;-66
2023/12/05 05:46:17;;;;;;;;;;;;;;;1.28;57.00;93995.72;4955414;28;19930;-65
2023/12/05 05:48:43;;;;;;;;;;;;;;;1.61;55.93;93985.28;4954793;28;19930;-65
2023/12/05 05:51:08;;;;;;;;;;;;;;;1.37;57.30;93979.00;4953620;28;19929;-65
2023/12/05 05:53:33;;;;;;;;;;;;;;;0.58;59.29;93987.09;4956451;28;20640;-66
2023/12/05 05:56:00;;;;;;;;;;;;;;;0.79;58.58;93991.13;4956234;28;20021;-65
2023/12/05 05:58:25;;;;;;;;;;;;;;;1.24;57.69;93992.59;4956562;28;19926;-66
2023/12/05 06:00:50;;;;;;;;;;;;;;;1.27;57.10;93988.84;4955595;28;20008;-66
2023/12/05 06:03:15;;;;;;;;;;;;;;;1.61;56.22;93993.16;4956167;28;20003;-64
2023/12/05 06:05:41;;;;;;;;;;;;;;;0.52;58.34;93996.41;4956178;28;19938;-65
2023/12/05 06:08:06;;;;;;;;;;;;;;;0.77;58.22;93996.50;4952102;28;19926;-65
2023/12/05 06:10:31;;;;;;;;;;;;;;;1.33;56.50;93995.25;4956619;28;19933;-65
2023/12/05 06:12:57;;;;;;;;;;;;;;;1.59;55.51;93989.06;4955389;28;20005;-65
2023/12/05 06:15:22;;;;;;;;;;;;;;;1.67;55.33;93998.78;4956936;28;19937;-64
2023/12/05 06:17:47;;;;;;;;;;;;;;;1.59;56.01;93996.94;4956258;28;20009;-64
2023/12/05 06:20:12;;;;;;;;;;;;;;;0.76;58.46;93997.50;4955212;28;19926;-65
2023/12/05 06:22:38;;;;;;;;;;;;;;;1.11;56.86;93990.44;4956090;28;19930;-64
2023/12/05 06:25:03;;;;;;;;;;;;;;;1.49;55.63;93989.19;4956651;28;19984;-65
2023/12/05 06:27:28;;;;;;;;;;;;;;;1.41;56.30;93984.75;4954418;28;20104;-64
2023/12/05 06:29:54;;;;;;;;;;;;;;;1.68;55.72;93993.38;4955568;28;20001;-64
2023/12/05 06:32:19;;;;;;;;;;;;;;;1.79;55.24;93994.84;4956253;28;19937;-64
2023/12/05 06:34:44;;;;;;;;;;;;;;;1.86;55.67;93998.44;4956219;28;20104;-65
2023/12/05 06:37:09;;;;;;;;;;;;;;;1.66;55.47;93999.75;4955938;28;19961;-65
2023/12/05 06:39:35;;;;;;;;;;;;;;;2.01;55.11;94000.44;4955774;28;19929;-64
2023/12/05 06:42:00;;;;;;;;;;;;;;;2.01;54.17;93987.31;4956249;28;20037;-65
2023/12/05 06:44:25;;;;;;;;;;;;;;;1.99;55.08;93994.50;4955848;28;19953;-65
2023/12/05 06:46:50;;;;;;;;;;;;;;;1.92;53.23;94002.22;4954828;28;19964;-65
2023/12/05 06:49:16;;;;;;;;;;;;;;;1.99;54.59;93997.97;4952289;28;19934;-65
2023/12/05 06:51:41;;;;;;;;;;;;;;;1.81;55.35;94003.34;4955731;28;19926;-65
2023/12/05 06:54:06;;;;;;;;;;;;;;;1.81;55.48;94008.59;4956306;28;19922;-64
2023/12/05 06:56:32;;;;;;;;;;;;;;;1.93;55.81;94009.13;4958392;28;19922;-65
2023/12/05 06:58:58;;;;;;;;;;;;;;;2.15;54.76;94006.81;4959129;28;19929;-65
2023/12/05 07:01:23;;;;;;;;;;;;;;;2.21;54.17;94007.97;4959682;28;19949;-65
2023/12/05 07:03:48;;;;;;;;;;;;;;;2.29;54.97;94017.63;4958941;28;19922;-65
2023/12/05 07:06:13;;;;;;;;;;;;;;;2.27;54.87;94012.53;4960117;28;20563;-65
2023/12/05 07:08:39;;;;;;;;;;;;;;;2.20;54.44;94012.41;4957306;28;19926;-65
2023/12/05 07:11:04;;;;;;;;;;;;;;;2.38;54.57;94019.25;4959278;28;19925;-65
2023/12/05 07:13:30;;;;;;;;;;;;;;;2.23;53.31;94027.81;4959591;28;19922;-65
2023/12/05 07:15:56;;;;;;;;;;;;;;;2.20;53.84;94024.69;4955633;28;19927;-65
2023/12/05 07:18:21;;;;;;;;;;;;;;;1.94;54.79;94026.50;4956195;28;20283;-65
2023/12/05 07:20:47;;;;;;;;;;;;;;;1.60;56.51;94025.63;4956315;28;19926;-65
2023/12/05 07:23:12;;;;;;;;;;;;;;;1.95;54.97;94033.41;4957187;28;19933;-65
2023/12/05 07:25:37;;;;;;;;;;;;;;;1.83;55.12;94029.44;4959217;28;19922;-64
2023/12/05 07:28:03;;;;;;;;;;;;;;;2.10;54.30;94038.00;4956961;28;20521;-64
2023/12/05 07:30:28;;;;;;;;;;;;;;;2.27;53.36;94042.28;4958864;28;19929;-64
2023/12/05 07:32:53;;;;;;;;;;;;;;;2.32;53.44;94040.94;4958863;28;19937;-65
2023/12/05 07:35:18;;;;;;;;;;;;;;;2.37;52.88;94047.34;4989577;28;19922;-65
2023/12/05 07:37:44;;;;;;;;;;;;;;;2.45;52.74;94051.75;4958506;28;19933;-65
2023/12/05 07:40:09;;;;;;;;;;;;;;;2.54;52.50;94052.59;4959044;28;19968;-65
2023/12/05 07:42:34;;;;;;;;;;;;;;;2.44;53.11;94050.13;4954348;28;20528;-65
2023/12/05 07:45:01;;;;;;;;;;;;;;;2.50;53.37;94052.09;4956644;28;19976;-65
2023/12/05 07:47:26;;;;;;;;;;;;;;;2.31;53.34;94057.72;4954452;28;19926;-65
2023/12/05 07:49:52;;;;;;;;;;;;;;;2.36;52.86;94069.34;4956965;28;20406;-65
2023/12/05 07:52:18;;;;;;;;;;;;;;;2.22;55.24;94067.38;4957784;28;19957;-64
2023/12/05 07:54:43;;;;;;;;;;;;;;;2.29;54.54;94072.78;4955288;28;19933;-64
2023/12/05 07:57:08;;;;;;;;;;;;;;;2.20;55.14;94074.59;4956159;28;19926;-66
2023/12/05 07:59:34;;;;;;;;;;;;;;;2.35;54.56;94075.56;4954877;28;19929;-64
2023/12/05 08:01:59;;;;;;;;;;;;;;;2.48;53.84;94084.75;4954085;28;20391;-66
2023/12/05 08:04:24;;;;;;;;;;;;;;;2.40;54.08;94072.47;4954801;28;19930;-66
2023/12/05 08:06:49;;;;;;;;;;;;;;;1.78;54.31;94076.34;4954311;28;19926;-65
2023/12/05 08:09:15;;;;;;;;;;;;;;;2.20;55.40;94082.47;4955390;28;20833;-64
2023/12/05 08:11:40;;;;;;;;;;;;;;;1.74;54.52;94083.72;4956626;28;19926;-63
2023/12/05 08:14:05;;;;;;;;;;;;;;;1.92;55.44;94085.41;4955038;28;19992;-65
2023/12/05 08:16:31;;;;;;;;;;;;;;;2.10;55.58;94080.00;4955304;28;20300;-64
2023/12/05 08:18:56;;;;;;;;;;;;;;;2.30;54.66;94077.88;4954491;28;20776;-64
2023/12/05 08:21:21;;;;;;;;;;;;;;;2.32;54.96;94077.72;4954869;28;19926;-64
2023/12/05 08:23:47;;;;;;;;;;;;;;;2.43;54.52;94081.81;4953764;28;19930;-64
2023/12/05 08:26:12;;;;;;;;;;;;;;;2.58;53.34;94082.00;4955563;28;19957;-63
2023/12/05 08:28:38;;;;;;;;;;;;;;;2.60;53.13;94087.88;4953732;28;20167;-63
2023/12/05 08:31:03;;;;;;;;;;;;;;;2.60;52.67;94085.25;4954438;28;19937;-63
2023/12/05 08:33:28;;;;;;;;;;;;;;;2.65;53.72;94086.41;4954587;28;19960;-64
2023/12/05 08:35:54;;;;;;;;;;;;;;;2.75;53.04;94091.47;4953737;28;20422;-64
2023/12/05 08:38:19;;;;;;;;;;;;;;;2.81;53.36;94094.41;4954544;28;19926;-64
2023/12/05 08:40:44;;;;;;;;;;;;;;;2.44;53.56;94099.22;4954559;28;20245;-64
2023/12/05 08:43:10;;;;;;;;;;;;;;;2.41;54.07;94094.31;4953541;28;20649;-63
2023/12/05 08:45:35;;;;;;;;;;;;;;;2.51;53.77;94094.94;4954287;28;19942;-64
2023/12/05 08:48:00;;;;;;;;;;;;;;;2.53;53.66;94098.25;4953992;28;19930;-64
2023/12/05 08:50:26;;;;;;;;;;;;;;;2.92;52.92;94101.97;4955272;28;19934;-63
2023/12/05 08:52:51;;;;;;;;;;;;;;;2.83;52.96;94098.53;4952482;28;20692;-64
2023/12/05 08:55:17;;;;;;;;;;;;;;;2.93;53.19;94108.06;4956938;28;19933;-64
2023/12/05 08:57:42;;;;;;;;;;;;;;;2.87;52.16;94102.47;4957437;28;20338;-64
2023/12/05 09:00:08;;;;;;;;;;;;;;;2.99;52.42;94108.19;4957159;28;19926;-64
2023/12/05 09:02:33;;;;;;;;;;;;;;;2.24;54.15;94115.28;4956721;28;20378;-64
2023/12/05 09:05:00;;;;;;;;;;;;;;;2.74;54.07;94118.75;4954603;28;19933;-64
2023/12/05 09:07:25;;;;;;;;;;;;;;;2.87;52.87;94120.06;4955130;28;20021;-64
2023/12/05 09:09:51;;;;;;;;;;;;;;;3.09;52.87;94118.53;4955495;28;20008;-64
2023/12/05 09:12:16;;;;;;;;;;;;;;;3.25;52.05;94119.47;4953760;28;20088;-64
2023/12/05 09:14:42;;;;;;;;;;;;;;;3.23;51.57;94109.13;4986623;28;19948;-64
2023/12/05 09:17:09;;;;;;;;;;;;;;;3.29;51.79;94118.13;4956785;28;19923;-64
2023/12/05 09:19:34;;;;;;;;;;;;;;;3.43;51.89;94124.50;4983860;28;19926;-64
2023/12/05 09:21:59;;;;;;;;;;;;;;;3.33;51.38;94122.06;4956181;28;19922;-64
2023/12/05 09:24:25;;;;;;;;;;;;;;;3.27;52.44;94128.03;4954919;28;20031;-64
2023/12/05 09:26:50;;;;;;;;;;;;;;;3.46;51.40;94123.38;4955065;28;20558;-64
2023/12/05 09:29:15;;;;;;;;;;;;;;;2.83;52.58;94124.84;4955881;28;19965;-65
2023/12/05 09:31:41;;;;;;;;;;;;;;;3.10;52.10;94138.56;4955838;28;20739;-64
2023/12/05 09:34:06;;;;;;;;;;;;;;;2.75;52.66;94144.03;4956217;28;19926;-63
2023/12/05 09:36:31;;;;;;;;;;;;;;;3.01;53.23;94136.94;4953158;28;19969;-64
2023/12/05 09:38:56;;;;;;;;;;;;;;;2.94;53.54;94138.59;4950905;28;19975;-65
2023/12/05 09:41:22;;;;;;;;;;;;;;;2.98;53.21;94142.53;4955897;28;20361;-65
2023/12/05 09:43:48;;;;;;;;;;;;;;;2.90;51.79;94144.19;4954436;28;20060;-64
2023/12/05 09:46:13;;;;;;;;;;;;;;;3.12;52.06;94143.66;4955001;28;19926;-64
2023/12/05 09:48:47;;;;;;;;;;;;;;;3.25;52.30;94149.25;4969278;28;19930;-64
2023/12/05 09:51:19;;;;;;;;;;;;;;;2.57;55.18;94151.28;4955005;28;19976;-62
2023/12/05 09:53:44;;;;;;;;;;;;;;;2.02;54.86;94154.34;4954009;28;20291;-65
2023/12/05 09:56:10;;;;;;;;;;;;;;;2.03;56.62;94150.72;4952676;28;20329;-65
2023/12/05 09:58:36;;;;;;;;;;;;;;;2.65;54.19;94144.22;4953456;28;19930;-77
2023/12/05 10:01:01;;;;;;;;;;;;;;;1.08;58.84;94158.50;4952928;28;20191;-77
2023/12/05 10:03:26;;;;;;;;;;;;;;;2.48;55.96;94146.00;4968084;28;20033;-76
2023/12/05 10:05:51;;;;;;;;;;;;;;;3.06;54.04;94146.97;4952391;28;20506;-77
2023/12/05 10:08:17;;;;;;;;;;;;;;;2.94;53.50;94144.69;4952135;28;19933;-77
2023/12/05 10:10:43;;;;;;;;;;;;;;;3.14;53.77;94142.50;4951924;28;19926;-77
2023/12/05 10:13:09;;;;;;;;;;;;;;;3.27;53.14;94141.97;4969248;28;20697;-76
2023/12/05 10:15:34;;;;;;;;;;;;;;;2.67;54.62;94146.69;4970444;28;19933;-76
2023/12/05 10:18:00;;;;;;;;;;;;;;;1.59;58.54;94147.31;4986495;28;19922;-77
2023/12/05 10:20:25;;;;;;;;;;;;;;;2.03;55.77;94144.63;4968834;28;20008;-77
2023/12/05 10:22:51;;;;;;;;;;;;;;;2.66;54.87;94137.16;4956186;28;19926;-76
2023/12/05 10:25:16;;;;;;;;;;;;;;;3.14;53.14;94134.59;4980838;28;19930;-76
2023/12/05 10:27:42;;;;;;;;;;;;;;;2.28;55.23;94142.88;4971245;28;19929;-77
2023/12/05 10:30:07;;;;;;;;;;;;;;;1.11;58.22;94150.34;4986120;28;19977;-64
2023/12/05 10:32:32;;;;;;;;;;;;;;;2.10;57.64;94143.84;4957046;28;19953;-64
2023/12/05 10:34:58;;;;;;;;;;;;;;;1.95;55.92;94133.16;4955626;28;20007;-64
2023/12/05 10:37:23;;;;;;;;;;;;;;;2.66;55.90;94137.16;4957917;28;19926;-64
2023/12/05 10:39:49;;;;;;;;;;;;;;;3.41;54.16;94134.41;4959150;28;20563;-62
2023/12/05 10:42:14;;;;;;;;;;;;;;;3.76;52.37;94134.94;4957578;28;19930;-64
2023/12/05 10:44:40;;;;;;;;;;;;;;;3.57;52.36;94130.91;4959146;28;19973;-63
2023/12/05 10:47:05;;;;;;;;;;;;;;;3.68;52.17;94143.69;4958206;28;19930;-63
2023/12/05 10:49:31;;;;;;;;;;;;;;;3.88;51.58;94132.72;4956971;28;19926;-63
2023/12/05 10:51:56;;;;;;;;;;;;;;;4.11;51.35;94128.53;4990066;28;20581;-63
2023/12/05 10:54:21;;;;;;;;;;;;;;;3.77;51.51;94130.47;4958401;28;20375;-64
2023/12/05 10:56:59;;;;;;;;;;;;;;;3.86;50.92;94134.72;4959118;28;19922;-64
2023/12/05 10:59:27;;;;;;;;;;;;;;;3.79;51.96;94125.88;4958821;28;19926;-64
2023/12/05 11:01:54;;;;;;;;;;;;;;;3.67;51.90;94131.53;4959061;28;19922;-64
2023/12/05 11:04:19;;;;;;;;;;;;;;;4.10;50.81;94129.50;4957756;28;19926;-64
2023/12/05 11:06:45;;;;;;;;;;;;;;;4.15;51.06;94127.97;4957276;28;20008;-64
2023/12/05 11:09:10;;;;;;;;;;;;;;;3.74;51.83;94136.13;4958358;28;19961;-63
2023/12/05 11:11:37;;;;;;;;;;;;;;;3.97;51.72;94132.69;4956672;28;19938;-64
2023/12/05 11:14:03;;;;;;;;;;;;;;;4.03;51.61;94132.00;4971315;28;19993;-63
2023/12/05 11:16:29;;;;;;;;;;;;;;;3.60;51.80;94132.41;4954456;28;19930;-63
2023/12/05 11:19:18;;;;;;;;;;;;;;;3.67;52.62;94131.53;4956222;28;19926;-63
2023/12/05 11:21:49;;;;;;;;;;;;;;;2.99;55.11;94134.47;4952777;28;19946;-62
2023/12/05 11:24:14;;;;;;;;;;;;;;;2.62;53.92;94135.84;4970446;28;19926;-63
2023/12/05 11:27:01;;;;;;;;;;;;;;;3.50;52.28;94135.22;4957408;28;19938;-63
2023/12/05 11:29:41;;;;;;;;;;;;;;;4.00;51.99;94125.28;4957085;28;19922;-63
2023/12/05 11:32:36;;;;;;;;;;;;;;;4.21;51.46;94128.28;4953071;28;20025;-62
2023/12/05 11:35:17;;;;;;;;;;;;;;;4.24;51.29;94127.91;4950534;28;19938;-63
2023/12/05 11:38:00;;;;;;;;;;;;;;;3.79;52.17;94131.16;4954325;28;19922;-63
2023/12/05 11:40:25;;;;;;;;;;;;;;;2.95;53.12;94127.09;4955114;28;19930;-63
2023/12/05 11:43:03;;;;;;;;;;;;;;;3.36;53.58;94132.25;4954503;28;19930;-63
2023/12/05 11:45:28;;;;;;;;;;;;;;;2.54;55.35;94128.78;4960310;28;20558;-63
2023/12/05 11:47:54;;;;;;;;;;;;;;;3.04;53.64;94131.38;4957251;28;19928;-63
2023/12/05 11:50:19;;;;;;;;;;;;;;;3.08;54.51;94132.66;4956347;28;19985;-64
2023/12/05 11:52:44;;;;;;;;;;;;;;;2.67;55.20;94124.81;4957624;28;19969;-64
2023/12/05 11:55:13;;;;;;;;;;;;;;;3.26;54.53;94124.56;4955782;28;19948;-63
2023/12/05 11:57:40;;;;;;;;;;;;;;;3.28;54.72;94132.28;4973015;28;19980;-63
2023/12/05 12:00:06;;;;;;;;;;;;;;;3.21;54.38;94132.16;4958392;28;20148;-63
2023/12/05 12:02:32;;;;;;;;;;;;;;;2.88;54.90;94133.03;4963619;28;20399;-64
2023/12/05 12:05:00;;;;;;;;;;;;;;;3.29;53.63;94131.28;4957121;28;19984;-63
2023/12/05 12:07:26;;;;;;;;;;;;;;;1.87;56.96;94138.38;4950045;28;20672;-64
2023/12/05 12:09:51;;;;;;;;;;;;;;;0.87;59.82;94151.00;4958233;28;19922;-65
2023/12/05 12:12:16;;;;;;;;;;;;;;;3.10;55.14;94127.25;4957371;28;19992;-63
2023/12/05 12:14:41;;;;;;;;;;;;;;;3.46;53.58;94131.25;4956462;28;19937;-64
2023/12/05 12:17:07;;;;;;;;;;;;;;;3.60;53.54;94130.56;4955211;28;20001;-64
2023/12/05 12:19:35;;;;;;;;;;;;;;;3.65;52.72;94128.25;4952393;28;19922;-63
2023/12/05 12:22:04;;;;;;;;;;;;;;;3.56;52.79;94124.00;4951936;28;19922;-63
2023/12/05 12:24:32;;;;;;;;;;;;;;;2.61;55.81;94132.41;4957244;28;20588;-64
2023/12/05 12:26:58;;;;;;;;;;;;;;;3.00;54.16;94127.44;4957351;28;20021;-64
2023/12/05 12:29:23;;;;;;;;;;;;;;;3.01;55.09;94140.41;4957943;28;20017;-64
2023/12/05 12:31:49;;;;;;;;;;;;;;;2.56;56.86;94132.06;4957187;28;20654;-64
2023/12/05 12:34:27;;;;;;;;;;;;;;;3.10;54.71;94132.50;4953517;28;19953;-64
2023/12/05 12:36:53;;;;;;;;;;;;;;;3.12;55.01;94133.16;4952711;28;19970;-64
2023/12/05 12:39:19;;;;;;;;;;;;;;;2.96;54.85;94128.75;4957125;28;19926;-63
2023/12/05 12:41:47;;;;;;;;;;;;;;;3.37;54.10;94133.09;4951957;28;19956;-64
2023/12/05 12:44:16;;;;;;;;;;;;;;;3.59;52.23;94128.94;4956599;28;19932;-64
2023/12/05 12:46:41;;;;;;;;;;;;;;;2.43;55.93;94131.72;4954841;28;19962;-64
2023/12/05 12:49:06;;;;;;;;;;;;;;;3.30;54.13;94135.56;4950917;28;20765;-65
2023/12/05 12:51:33;;;;;;;;;;;;;;;2.32;56.67;94132.88;4956914;28;19937;-65